Latest Observation

42 Stations

15 Minute Data | America/Los_Angeles
as of 9/3/26 5:15 AM PDT
Station Date Time Temp (°F) RH (%) Dew Pt (°F) Wind Spd (mph) Wind Dir (°) Wind Gust (mph) Latest Rain (In) Daily Rain (In) Daily Min Temp (°F) Daily Max Temp (°F) Daily Max Wind (mph)
Elk Mt. Farm 8/13/26 1500 85.6   7.4 - - - - - - - 51.4   1.1 85.6   7.4 -
Upper Lake 9/3/26 0515 58.8   4.6 86   8 54.7   2.2 0.8 NNE | 12 2.6   1.5 0.00 0.00 58.6   8.7 60.7   6.1 4.5   1.0
Scotts Valley 9/3/26 0515 58.7   4.5 88   6 55.1   2.7 1.6 SE | 141 3.9   1.9 0.00 0.00 58.3   6.3 59.2   4.7 6.0   3.4
Scotts Valley-South (Bella Vista) 9/3/26 0515 58.1   4.1 85   5 53.6   2.4 0.8 E | 87 2.6   1.1 0.00 0.00 57.8   5.0 58.7   4.2 7.4   4.8
Kelseyville 9/3/26 0515 59.8   3.3 84   0 54.9   3.4 3.7 SSW | 193 7.2   4.8 0.00 0.00 58.6   4.7 60.0   3.3 9.0   0.4
Kelseyville Remote 9/3/26 0515 60.5   3.4 75   0 52.5   3.3 - - - 0.00 0.00 59.4   4.9 60.7   3.0 -
Kelseyville (Clark Drive) 9/3/26 0515 59.9   3.0 - - - - - 0.00 0.00 56.7   3.3 60.2   3.1 -
Kelsey Bench (Oaklea) 9/3/26 0515 58.3   2.7 84   7 53.6   4.8 3.5 SE | 138 5.4   3.6 0.00 0.00 55.8   1.7 58.6   2.8 9.3   3.9
Smith Lane (Kelseyville-South) 9/3/26 0515 59.9   3.4 83   0 54.8   3.5 2.7 ESE | 122 6.0   3.4 0.00 0.00 58.6   4.9 60.1   3.5 9.3   1.1
Bell Hill-West 9/3/26 0515 59.3   3.3 93   2 57.4   3.9 2.8 SSW | 202 5.1   2.7 0.00 0.00 57.2   1.9 59.8   2.8 10.8   4.0
High Valley Ridgeline (Brassfield) 9/3/26 0515 55.5   1.5 90   8 52.6   4.1 10.4 WSW | 244 15.6   12.6 0.00 0.00 55.0   1.7 55.7   1.7 20.4   7.6
Wight Way (Adobe Creek) 9/3/26 0500 58.9   3.2 88   6 55.2   5.1 1.6 SE | 130 3.5   1.7 0.00 0.00 55.5   1.2 59.2   3.0 8.2   3.5
Ridgeline Top (Brassfield) 9/3/26 0515 55.4   1.8 - - - - - - - 54.8   1.9 55.6   1.9 -
Ridgeline Low (Brassfield) 9/3/26 0515 57.4   2.4 - - - - - - - 56.8   2.1 57.4   1.7 -
Long Valley (Shannon) 6/29/26 1400 84.9   4.6 25   1 44.9   3.2 2.9 ENE | 75 10.2   0.4 0.00 0.00 46.4   0.4 86.9   6.5 13.7   1.8
High Valley Winery 9/3/26 0515 58.4   3.4 81   5 52.7   5.1 7.8 SW | 234 12.1   10.7 0.00 0.00 57.3   3.3 58.4   1.8 16.3   3.9
Round Mtn Rd. 9/3/26 0515 58.2   4.0 - - - - - - - 57.0   5.3 58.2   3.0 -
Circle O 9/3/26 0515 57.1   4.7 - - - - - - - 56.0   5.8 57.3   2.5 -
Robertsbridge Vineyards 9/3/26 0515 58.8   3.3 84   7 53.9   5.5 - - - - - 56.3   5.8 58.9   3.2 -
Urgency Vineyard 9/3/26 0515 57.8   2.8 83   11 52.7   6.6 2.5 WSW | 254 6.2   4.8 0.00 0.00 55.4   2.5 58.1   2.6 11.5   5.0
Red Hills (Beckstoffer) 9/3/26 0515 57.7   2.6 88   12 54.2   6.6 - - - 0.00 0.00 55.5   2.4 58.0   2.2 -
Winters (Shannon) 9/3/26 0515 57.2   3.5 82   2 51.6   4.1 2.2 NNE | 12 5.3   2.0 0.00 0.00 50.0   0.5 57.5   3.8 14.7   11.1
Secret Pond (Shannon) 9/3/26 0515 56.8   4.3 80   3 50.7   3.1 1.1 SE | 124 4.2   1.0 0.00 0.00 51.8   1.4 56.9   3.2 13.4   7.3
Rolling Knolls (Shannon) 9/3/26 0515 56.2   4.2 80   1 50.1   4.5 1.2 W | 280 3.1   2.0 0.00 0.00 50.9   1.0 56.4   3.7 5.7   1.8
Lower Lake 9/3/26 0515 57.7   2.5 79   1 51.4   2.2 0.8 ESE | 119 3.9   0.3 0.00 0.00 52.8   0.5 58.0   2.8 7.9   3.7
Adamson Ranch 9/3/26 0515 57.6   3.2 76   5 50.2   1.3 0.9 S | 175 2.2   2.2 0.00 0.00 56.8   7.2 59.9   5.5 7.5   4.2
Middletown (Diamond D) 9/3/26 0515 61.1   4.4 82   1 55.6   4.6 5.2 N | 355 10.6   7.8 0.00 0.00 57.6   1.3 61.1   1.9 11.8   0.3
Middletown-West (Domaine Helena) 9/3/26 0515 59.1   5.2 86   6 54.9   3.4 4.4 S | 186 9.8   6.5 0.00 0.00 55.6   1.7 59.5   1.8 10.6   1.1
Middletown-South 9/3/26 0515 59.6   3.8 84   4 54.9   2.4 3.6 ENE | 69 8.1   5.5 0.00 0.00 56.8   1.7 60.3   1.6 15.3   5.7
Jim Davis (Langtry) 9/3/26 0515 58.2   2.2 82   2 52.8   2.7 3.4 ESE | 110 6.6   3.6 0.00 0.00 58.0   5.0 60.8   4.8 20.0   15.9
Napa Valley Basin 9/3/26 0515 58.6   3.7 79   1 52.0   3.3 1.3 NW | 310 2.8   0.5 0.00 0.00 54.1   4.5 58.9   3.9 7.5   3.2
Lower Bohn 9/3/26 0515 57.8   3.9 80   7 51.6   6.1 1.1 WNW | 283 2.0   1.1 0.00 0.00 57.6   8.7 61.0   6.9 17.7   12.0
Upper Bohn-North 9/3/26 0515 58.2   0.8 85   1 53.8   1.1 1.3 ESE | 103 3.6   0.7 0.00 0.00 56.4   5.0 60.2   2.6 8.0   1.9
Snell Peak Blk#9 9/3/26 0515 57.8   0.9 83   2 52.8   1.4 0.9 SE | 143 2.4   0.1 0.00 0.00 55.8   0.5 57.9   0.2 3.9   2.1
Coyote Lake West 9/3/26 0515 58.7   1.0 82   1 53.1   1.4 0.7 E | 94 1.8   1.0 0.00 0.00 55.2   2.7 58.7   1.0 5.2   0.3
Coyote Lake Northeast 9/3/26 0500 59.0   1.7 81   1 53.1   1.8 - - - - - 55.8   1.9 59.0   1.7 -
Coyote Lake East 9/3/26 0515 60.0   3.6 82   3 54.6   4.4 - - - - - 52.2   1.4 60.0   3.6 -
Morgan Valley 9/3/26 0515 55.4   2.8 99   2 55.1   3.5 12.4 SSW | 204 19.8   13.8 0.00 0.00 51.6   0.0 55.5   1.9 19.8   3.2
Mine Pit North 9/3/26 0500 53.8   0.9 87   0 50.0   1.0 8.7 SSW | 194 14.5   4.8 - - 52.4   0.3 55.1   0.2 14.5   3.0
Mine Pit South 9/3/26 0500 52.8   0.1 85   1 48.5   0.3 6.3 SE | 140 10.1   3.4 0.00 0.00 52.5   1.2 54.7   1.0 10.4   3.7
Cow Mountain 9/3/26 0515 51.7   4.5 - - 15.4 WSW | 241 21.9   9.6 0.01 0.04 49.1   2.3 51.8   3.8 25.2   10.5
Ukiah-SE (Ruddick) 9/3/26 0515 57.2   1.8 94   0 55.6   1.6 2.9 SSE | 151 6.8   2.9 0.00 0.01 57.1   2.0 60.8   5.0 10.7   6.5
Max     61.1 99 57.4 15.4 - 21.9 0.01 0.04 59.4 61.1 25.2
Avg     57.8 84 53.2 3.7 - 7.0 0.00 - - - -
Min     51.7 75 48.5 0.7 - 1.8 0.00 0.00 49.1 51.8 3.9